createdAt,value
2022-12-26T00:00:29.012Z,100534.22
2022-12-26T00:02:31.133Z,100530.81
2022-12-26T00:04:48.808Z,100542.75
2022-12-26T00:06:52.536Z,100540.06
2022-12-26T00:08:55.513Z,100531.72
2022-12-26T00:10:57.555Z,100538.47
2022-12-26T00:13:38.862Z,100545.34
2022-12-26T00:15:21.292Z,100535.78
2022-12-26T00:17:23.215Z,100527.16
2022-12-26T00:19:25.393Z,100530.69
2022-12-26T00:21:29.227Z,100520.47
2022-12-26T00:23:33.387Z,100517.94
2022-12-26T00:25:35.373Z,100523.94
2022-12-26T00:27:37.345Z,100523.94
2022-12-26T00:29:39.264Z,100529.22
2022-12-26T00:31:41.539Z,100522.38
2022-12-26T00:33:43.908Z,100516.41
2022-12-26T00:35:45.896Z,100517.28
2022-12-26T00:37:47.912Z,100515.50
2022-12-26T00:39:49.809Z,100512.00
2022-12-26T00:41:51.765Z,100520.66
2022-12-26T00:43:53.748Z,100518.97
2022-12-26T00:45:55.699Z,100518.16
2022-12-26T00:47:57.606Z,100508.00
2022-12-26T00:50:13.323Z,100512.06
2022-12-26T00:52:17.528Z,100518.22
2022-12-26T00:54:19.475Z,100505.31
2022-12-26T00:56:21.468Z,100500.13
2022-12-26T00:58:24.390Z,100510.19
2022-12-26T01:00:26.292Z,100497.41
2022-12-26T01:02:31.392Z,100496.44
2022-12-26T01:04:33.357Z,100500.84
2022-12-26T01:06:35.524Z,100508.88
2022-12-26T01:08:37.530Z,100516.50
2022-12-26T01:10:42.585Z,100505.25
2022-12-26T01:12:44.511Z,100502.94
2022-12-26T01:14:46.496Z,100503.00
2022-12-26T01:16:48.482Z,100503.00
2022-12-26T01:18:50.447Z,100496.19
2022-12-26T01:20:52.467Z,100496.22
2022-12-26T01:22:55.553Z,100484.25
2022-12-26T01:24:58.631Z,100495.22
2022-12-26T01:27:00.550Z,100500.44
2022-12-26T01:29:02.499Z,100489.31
2022-12-26T01:31:06.144Z,100491.91
2022-12-26T01:33:08.101Z,100506.34
2022-12-26T01:35:10.372Z,100505.53
2022-12-26T01:37:14.692Z,100506.50
2022-12-26T01:39:16.692Z,100497.91
2022-12-26T01:41:20.464Z,100497.91
2022-12-26T01:43:22.951Z,100497.75
2022-12-26T01:45:29.643Z,100498.66
2022-12-26T01:47:38.404Z,100498.75
2022-12-26T01:49:44.516Z,100493.69
2022-12-26T01:51:54.573Z,100494.28
2022-12-26T01:54:40.606Z,100490.88
2022-12-26T01:56:28.713Z,100464.47
2022-12-26T01:58:36.413Z,100475.56
2022-12-26T02:00:39.397Z,100477.13
2022-12-26T02:02:46.259Z,100470.44
2022-12-26T02:04:54.236Z,100479.72
2022-12-26T02:06:56.350Z,100501.84
2022-12-26T02:08:59.523Z,100482.28
2022-12-26T02:11:11.080Z,100483.06
2022-12-26T02:13:14.398Z,100476.31
2022-12-26T02:15:18.356Z,100484.06
2022-12-26T02:17:21.244Z,100506.38
2022-12-26T02:19:29.298Z,100496.03
2022-12-26T02:21:33.368Z,100496.06
2022-12-26T02:23:39.847Z,100486.66
2022-12-26T02:25:45.271Z,100494.38
2022-12-26T02:27:53.367Z,100496.16
2022-12-26T02:30:04.869Z,100508.97
2022-12-26T02:32:13.582Z,100513.41
2022-12-26T02:34:21.679Z,100512.50
2022-12-26T02:36:29.885Z,100510.91
2022-12-26T02:38:38.045Z,100500.66
2022-12-26T02:40:46.575Z,100510.22
2022-12-26T02:42:54.958Z,100513.53
2022-12-26T02:45:12.845Z,100528.28
2022-12-26T02:47:30.860Z,100513.63
2022-12-26T02:49:54.371Z,100520.41
2022-12-26T02:52:03.923Z,100549.75
2022-12-26T02:54:19.386Z,100518.69
2022-12-26T02:56:34.657Z,100529.84
2022-12-26T02:58:48.193Z,100534.34
2022-12-26T03:01:01.069Z,100538.69
2022-12-26T03:03:13.737Z,100520.63
2022-12-26T03:05:28.092Z,100529.00
2022-12-26T03:07:38.748Z,100533.63
2022-12-26T03:09:46.604Z,100559.28
2022-12-26T03:11:56.049Z,100571.31
2022-12-26T03:14:11.443Z,100589.13
2022-12-26T03:16:18.310Z,100616.69
2022-12-26T03:18:58.684Z,100600.06
2022-12-26T03:20:47.074Z,100589.88
2022-12-26T03:22:54.340Z,100583.09
2022-12-26T03:25:00.280Z,100594.22
2022-12-26T03:27:02.415Z,100598.34
2022-12-26T03:29:07.636Z,100601.47
2022-12-26T03:31:12.624Z,100599.66
2022-12-26T03:33:18.957Z,100630.13
2022-12-26T03:35:21.284Z,100629.16
2022-12-26T03:37:47.433Z,100613.06
2022-12-26T03:39:58.043Z,100624.97
2022-12-26T03:42:19.261Z,100627.63
2022-12-26T03:44:53.754Z,100625.75
2022-12-26T03:47:15.224Z,100640.16
2022-12-26T03:49:39.268Z,100638.84
2022-12-26T03:52:09.329Z,100643.19
2022-12-26T03:54:26.220Z,100651.00
2022-12-26T03:57:00.223Z,100662.84
2022-12-26T03:59:15.796Z,100646.78
2022-12-26T04:01:31.456Z,100658.69
2022-12-26T04:03:47.307Z,100660.44
2022-12-26T04:06:01.355Z,100665.56
2022-12-26T04:08:23.339Z,100661.63
2022-12-26T04:10:40.322Z,100670.59
2022-12-26T04:12:54.231Z,100681.75
2022-12-26T04:15:12.366Z,100679.78
2022-12-26T04:17:37.196Z,100679.00
2022-12-26T04:19:58.969Z,100680.53
2022-12-26T04:22:18.670Z,100681.34
2022-12-26T04:24:36.278Z,100695.44
2022-12-26T04:26:53.308Z,100701.28
2022-12-26T04:29:04.210Z,100707.34
2022-12-26T04:31:21.707Z,100704.88
2022-12-26T04:33:41.286Z,100712.47
2022-12-26T04:35:59.242Z,100728.63
2022-12-26T04:38:13.307Z,100731.28
2022-12-26T04:40:29.228Z,100737.34
2022-12-26T04:42:43.637Z,100744.00
2022-12-26T04:44:47.324Z,100748.25
2022-12-26T04:46:49.562Z,100756.22
2022-12-26T04:49:03.258Z,100768.34
2022-12-26T04:51:05.586Z,100774.38
2022-12-26T04:53:07.387Z,100781.34
2022-12-26T04:55:09.191Z,100778.03
2022-12-26T04:57:11.734Z,100786.50
2022-12-26T04:59:14.123Z,100791.78
2022-12-26T05:01:25.406Z,100795.97
2022-12-26T05:03:36.329Z,100800.38
2022-12-26T05:05:52.251Z,100808.16
2022-12-26T05:08:03.254Z,100816.69
2022-12-26T05:10:08.685Z,100819.84
2022-12-26T05:12:10.562Z,100836.44
2022-12-26T05:14:12.338Z,100842.25
2022-12-26T05:16:23.729Z,100879.09
2022-12-26T05:18:35.203Z,100882.34
2022-12-26T05:20:49.297Z,100883.78
2022-12-26T05:23:02.736Z,100893.06
2022-12-26T05:25:15.237Z,100891.16
2022-12-26T05:27:26.548Z,100891.88
2022-12-26T05:29:28.510Z,100897.56
2022-12-26T05:31:35.395Z,100905.09
2022-12-26T05:33:48.221Z,100910.97
2022-12-26T05:35:49.980Z,100909.97
2022-12-26T05:37:51.889Z,100915.00
2022-12-26T05:39:53.647Z,100920.75
2022-12-26T05:41:55.607Z,100926.78
2022-12-26T05:43:57.448Z,100929.19
2022-12-26T05:45:59.257Z,100926.66
2022-12-26T05:48:01.801Z,100935.09
2022-12-26T05:50:04.209Z,100949.59
2022-12-26T05:52:06.043Z,100954.59
2022-12-26T05:54:07.892Z,100954.53
2022-12-26T05:56:13.554Z,100961.00
2022-12-26T05:58:15.405Z,100966.25
2022-12-26T06:00:17.974Z,100967.00
2022-12-26T06:02:19.927Z,100979.06
2022-12-26T06:04:21.903Z,100981.47
2022-12-26T06:06:25.292Z,100984.72
2022-12-26T06:08:27.159Z,100982.25
2022-12-26T06:10:29.906Z,100984.03
2022-12-26T06:12:31.702Z,100989.91
2022-12-26T06:14:33.495Z,101001.03
2022-12-26T06:16:35.290Z,101001.66
2022-12-26T06:18:37.515Z,100994.72
2022-12-26T06:20:39.686Z,101011.84
2022-12-26T06:22:41.463Z,101009.31
2022-12-26T06:24:43.296Z,101027.19
2022-12-26T06:26:45.045Z,101029.50
2022-12-26T06:28:47.838Z,101035.56
2022-12-26T06:30:50.577Z,101037.16
2022-12-26T06:32:52.322Z,101049.91
2022-12-26T06:34:54.139Z,101051.53
2022-12-26T06:36:56.068Z,101064.34
2022-12-26T06:38:58.162Z,101067.59
2022-12-26T06:40:59.937Z,101069.34
2022-12-26T06:43:03.729Z,101074.38
2022-12-26T06:45:05.999Z,101082.78
2022-12-26T06:47:07.912Z,101082.78
2022-12-26T06:49:09.743Z,101096.31
2022-12-26T06:51:16.090Z,101102.38
2022-12-26T06:53:17.909Z,101100.59
2022-12-26T06:55:19.758Z,101105.75
2022-12-26T06:57:21.519Z,101111.72
2022-12-26T06:59:23.283Z,101113.38
2022-12-26T07:01:26.321Z,101119.31
2022-12-26T07:03:28.325Z,101120.00
2022-12-26T07:05:30.351Z,101124.22
2022-12-26T07:07:32.220Z,101119.00
2022-12-26T07:09:34.284Z,101123.28
2022-12-26T07:11:38.343Z,101121.50
2022-12-26T07:13:40.098Z,101125.81
2022-12-26T07:15:41.854Z,101123.06
2022-12-26T07:17:43.644Z,101135.69
2022-12-26T07:19:45.551Z,101139.19
2022-12-26T07:21:47.348Z,101145.75
2022-12-26T07:23:49.721Z,101156.78
2022-12-26T07:25:51.609Z,101160.22
2022-12-26T07:27:54.339Z,101167.09
2022-12-26T07:29:56.068Z,101165.25
2022-12-26T07:31:59.103Z,101171.06
2022-12-26T07:34:00.979Z,101176.84
2022-12-26T07:36:05.863Z,101179.41
2022-12-26T07:38:07.728Z,101180.09
2022-12-26T07:40:10.563Z,101179.88
2022-12-26T07:42:12.372Z,101190.13
2022-12-26T07:44:14.253Z,101195.31
2022-12-26T07:46:16.091Z,101205.06
2022-12-26T07:48:17.975Z,101196.69
2022-12-26T07:50:20.106Z,101201.00
2022-12-26T07:52:23.135Z,101206.31
2022-12-26T07:54:24.899Z,101214.13
2022-12-26T07:56:26.703Z,101219.19
2022-12-26T07:58:28.543Z,101225.28
2022-12-26T08:00:30.337Z,101226.16
2022-12-26T08:02:32.407Z,101230.47
2022-12-26T08:04:34.488Z,101235.44
2022-12-26T08:06:36.372Z,101250.91
2022-12-26T08:08:38.920Z,101245.69
2022-12-26T08:10:40.843Z,101254.25
2022-12-26T08:12:42.820Z,101262.69
2022-12-26T08:14:44.648Z,101266.78
2022-12-26T08:16:51.337Z,101276.16
2022-12-26T08:18:54.814Z,101280.41
2022-12-26T08:20:58.744Z,101281.28
2022-12-26T08:23:00.703Z,101288.16
2022-12-26T08:25:02.823Z,101283.75
2022-12-26T08:27:04.853Z,101289.47
2022-12-26T08:29:06.674Z,101292.91
2022-12-26T08:31:09.489Z,101294.69
2022-12-26T08:33:11.508Z,101301.47
2022-12-26T08:35:13.459Z,101298.84
2022-12-26T08:37:15.323Z,101299.53
2022-12-26T08:39:17.276Z,101312.53
2022-12-26T08:41:19.235Z,101312.47
2022-12-26T08:43:42.184Z,101318.28
2022-12-26T08:45:43.012Z,101317.41
2022-12-26T08:47:44.796Z,101323.41
2022-12-26T08:49:46.613Z,101331.63
2022-12-26T08:51:48.410Z,101329.03
2022-12-26T08:53:51.368Z,101337.38
2022-12-26T08:55:53.267Z,101341.50
2022-12-26T08:57:55.061Z,101344.03
2022-12-26T08:59:56.831Z,101348.16
2022-12-26T09:01:58.721Z,101349.53
2022-12-26T09:04:03.812Z,101355.31
2022-12-26T09:06:06.865Z,101351.47
2022-12-26T09:08:09.517Z,101369.66
2022-12-26T09:10:11.294Z,101376.06
2022-12-26T09:12:14.175Z,101390.03
2022-12-26T09:14:16.104Z,101387.44
2022-12-26T09:16:22.743Z,101395.19
2022-12-26T09:18:24.655Z,101394.38
2022-12-26T09:20:26.435Z,101398.91
2022-12-26T09:22:37.329Z,101410.84
2022-12-26T09:24:39.034Z,101403.50
2022-12-26T09:26:41.672Z,101414.41
2022-12-26T09:28:43.664Z,101419.53
2022-12-26T09:30:45.525Z,101424.50
2022-12-26T09:32:47.375Z,101414.75
2022-12-26T09:34:49.623Z,101431.69
2022-12-26T09:36:51.438Z,101438.22
2022-12-26T09:38:55.158Z,101439.88
2022-12-26T09:40:57.453Z,101438.97
2022-12-26T09:43:17.794Z,101440.16
2022-12-26T09:45:27.380Z,101447.97
2022-12-26T09:47:36.092Z,101444.78
2022-12-26T09:49:42.419Z,101453.56
2022-12-26T09:51:49.168Z,101451.59
2022-12-26T09:53:51.084Z,101458.22
2022-12-26T09:55:58.921Z,101460.78
2022-12-26T09:58:07.350Z,101461.72
2022-12-26T10:00:20.523Z,101461.91
2022-12-26T10:02:25.033Z,101461.03
2022-12-26T10:04:30.180Z,101465.84
2022-12-26T10:06:37.156Z,101472.03
2022-12-26T10:08:58.420Z,101486.59
2022-12-26T10:11:02.891Z,101471.69
2022-12-26T10:13:11.783Z,101493.06
2022-12-26T10:15:26.493Z,101496.91
2022-12-26T10:17:38.863Z,101499.88
2022-12-26T10:19:52.500Z,101512.44
2022-12-26T10:22:10.384Z,101507.38
2022-12-26T10:24:17.426Z,101515.28
2022-12-26T10:26:25.096Z,101520.41
2022-12-26T10:28:36.511Z,101527.72
2022-12-26T10:30:42.741Z,101519.56
2022-12-26T10:32:49.991Z,101521.59
2022-12-26T10:34:52.303Z,101523.06
2022-12-26T10:37:05.886Z,101533.88
2022-12-26T10:39:23.679Z,101537.97
2022-12-26T10:41:38.083Z,101539.25
2022-12-26T10:43:44.885Z,101540.47
2022-12-26T10:46:03.457Z,101542.34
2022-12-26T10:48:06.175Z,101542.50
2022-12-26T10:50:16.809Z,101543.50
2022-12-26T10:52:23.097Z,101542.16
2022-12-26T10:54:25.166Z,101545.31
2022-12-26T10:56:27.749Z,101542.91
2022-12-26T10:58:33.957Z,101552.63
2022-12-26T11:00:35.786Z,101552.88
2022-12-26T11:02:37.697Z,101548.88
2022-12-26T11:05:15.580Z,101559.69
2022-12-26T11:07:18.333Z,101556.25
2022-12-26T11:09:35.915Z,101555.38
2022-12-26T11:11:47.238Z,101570.63
2022-12-26T11:14:01.262Z,101557.63
2022-12-26T11:16:04.808Z,101555.72
2022-12-26T11:18:21.160Z,101560.50
2022-12-26T11:20:27.887Z,101552.94
2022-12-26T11:22:30.162Z,101559.06
2022-12-26T11:24:31.964Z,101560.53
2022-12-26T11:26:33.828Z,101566.84
2022-12-26T11:28:37.417Z,101561.59
2022-12-26T11:30:40.409Z,101559.34
2022-12-26T11:32:45.476Z,101567.13
2022-12-26T11:34:49.716Z,101563.34
2022-12-26T11:36:51.752Z,101565.53
2022-12-26T11:38:57.830Z,101571.69
2022-12-26T11:41:10.324Z,101565.75
2022-12-26T11:43:17.228Z,101569.75
2022-12-26T11:45:24.523Z,101566.00
2022-12-26T11:47:28.467Z,101563.59
2022-12-26T11:49:34.723Z,101572.22
2022-12-26T11:51:42.350Z,101572.97
2022-12-26T11:53:44.115Z,101569.38
2022-12-26T11:55:57.159Z,101576.66
2022-12-26T11:58:15.538Z,101573.47
2022-12-26T12:00:22.260Z,101579.38
2022-12-26T12:02:28.001Z,101578.63
2022-12-26T12:04:29.908Z,101587.03
2022-12-26T12:06:35.177Z,101572.03
2022-12-26T12:08:39.528Z,101568.00
2022-12-26T12:10:57.819Z,101566.44
2022-12-26T12:13:10.393Z,101576.16
2022-12-26T12:15:21.284Z,101556.47
2022-12-26T12:17:23.160Z,101566.66
2022-12-26T12:19:44.370Z,101571.00
2022-12-26T12:21:50.411Z,101565.88
2022-12-26T12:24:01.788Z,101571.53
2022-12-26T12:26:17.702Z,101565.88
2022-12-26T12:28:31.298Z,101567.94
2022-12-26T12:30:51.789Z,101571.00
2022-12-26T12:33:03.380Z,101568.75
2022-12-26T12:35:26.136Z,101567.97
2022-12-26T12:37:37.022Z,101567.09
2022-12-26T12:39:38.632Z,101557.78
2022-12-26T12:42:00.053Z,101561.66
2022-12-26T12:44:26.807Z,101565.88
2022-12-26T12:46:31.428Z,101563.13
2022-12-26T12:48:52.413Z,101565.69
2022-12-26T12:51:02.961Z,101556.84
2022-12-26T12:53:51.612Z,101561.88
2022-12-26T12:56:24.223Z,101569.97
2022-12-26T12:58:37.329Z,101569.09
2022-12-26T13:00:56.324Z,101563.84
2022-12-26T13:03:18.926Z,101559.19
2022-12-26T13:05:33.183Z,101569.47
2022-12-26T13:07:46.929Z,101566.66
2022-12-26T13:10:02.408Z,101564.19
2022-12-26T13:12:07.471Z,101564.72
2022-12-26T13:14:20.621Z,101572.88
2022-12-26T13:16:43.482Z,101582.13
2022-12-26T13:18:58.534Z,101573.16
2022-12-26T13:21:06.340Z,101574.19
2022-12-26T13:23:50.255Z,101568.00
2022-12-26T13:26:07.051Z,101573.78
2022-12-26T13:28:21.329Z,101571.31
2022-12-26T13:30:23.071Z,101560.53
2022-12-26T13:32:29.660Z,101567.03
2022-12-26T13:34:32.370Z,101567.28
2022-12-26T13:36:55.970Z,101568.16
2022-12-26T13:39:02.980Z,101568.56
2022-12-26T13:41:23.607Z,101554.72
2022-12-26T13:43:49.844Z,101566.56
2022-12-26T13:45:55.232Z,101563.25
2022-12-26T13:47:56.935Z,101561.63
2022-12-26T13:49:58.897Z,101565.88
2022-12-26T13:52:25.454Z,101570.97
2022-12-26T13:54:29.019Z,101562.09
2022-12-26T13:56:30.626Z,101582.56
2022-12-26T13:58:32.421Z,101580.59
2022-12-26T14:00:46.207Z,101587.25
2022-12-26T14:03:25.890Z,101588.09
2022-12-26T14:06:06.213Z,101575.22
2022-12-26T14:08:14.269Z,101572.06
2022-12-26T14:10:32.177Z,101582.72
2022-12-26T14:13:05.941Z,101584.97
2022-12-26T14:15:24.676Z,101593.38
2022-12-26T14:17:38.712Z,101589.91
2022-12-26T14:19:56.831Z,101599.47
2022-12-26T14:22:15.887Z,101593.59
2022-12-26T14:25:16.996Z,101589.41
2022-12-26T14:27:34.310Z,101609.63
2022-12-26T14:30:01.616Z,101612.47
2022-12-26T14:32:21.711Z,101627.22
2022-12-26T14:34:47.907Z,101615.19
2022-12-26T14:36:56.874Z,101605.59
2022-12-26T14:39:01.202Z,101609.50
2022-12-26T14:41:09.203Z,101604.16
2022-12-26T14:43:16.918Z,101614.03
2022-12-26T14:45:21.576Z,101621.38
2022-12-26T14:47:49.735Z,101602.47
2022-12-26T14:49:51.797Z,101611.56
2022-12-26T14:51:53.559Z,101617.53
2022-12-26T14:54:37.788Z,101615.06
2022-12-26T14:56:39.701Z,101616.22
2022-12-26T14:58:45.492Z,101618.44
2022-12-26T15:00:47.889Z,101616.31
2022-12-26T15:02:58.770Z,101622.47
2022-12-26T15:05:08.555Z,101638.53
2022-12-26T15:08:00.555Z,101638.53
2022-12-26T15:10:23.949Z,101650.94
2022-12-26T15:12:55.155Z,101630.59
2022-12-26T15:15:26.241Z,101637.03
2022-12-26T15:17:30.614Z,101641.97
2022-12-26T15:20:09.275Z,101650.63
2022-12-26T15:22:22.833Z,101661.41
2022-12-26T15:27:47.875Z,101671.50
2022-12-26T15:29:55.177Z,101672.25
2022-12-26T15:32:12.049Z,101674.59
2022-12-26T15:34:51.018Z,101686.09
2022-12-26T15:37:05.429Z,101679.75
2022-12-26T15:39:28.527Z,101692.97
2022-12-26T15:41:33.155Z,101693.72
2022-12-26T15:43:45.006Z,101694.81
2022-12-26T15:45:59.060Z,101694.59
2022-12-26T15:48:22.490Z,101699.25
2022-12-26T15:50:33.932Z,101699.47
2022-12-26T15:53:18.902Z,101684.97
2022-12-26T15:55:45.143Z,101689.41
2022-12-26T15:58:23.714Z,101697.97
2022-12-26T16:00:50.271Z,101697.38
2022-12-26T16:03:16.913Z,101707.50
2022-12-26T16:05:21.612Z,101701.41
2022-12-26T16:07:39.423Z,101708.59
2022-12-26T16:09:46.076Z,101711.16
2022-12-26T16:11:47.668Z,101715.09
2022-12-26T16:13:59.867Z,101724.81
2022-12-26T16:16:01.670Z,101723.56
2022-12-26T16:18:17.336Z,101738.69
2022-12-26T16:20:43.643Z,101722.41
2022-12-26T16:22:47.182Z,101729.81
2022-12-26T16:24:53.295Z,101740.00
2022-12-26T16:26:55.440Z,101736.13
2022-12-26T16:29:00.372Z,101737.50
2022-12-26T16:31:03.287Z,101741.03
2022-12-26T16:33:05.889Z,101733.78
2022-12-26T16:35:18.020Z,101738.25
2022-12-26T16:37:22.560Z,101733.56
2022-12-26T16:39:24.295Z,101737.28
2022-12-26T16:41:27.463Z,101734.88
2022-12-26T16:43:31.995Z,101743.66
2022-12-26T16:45:37.566Z,101746.06
2022-12-26T16:47:39.907Z,101750.56
2022-12-26T16:49:43.663Z,101752.00
2022-12-26T16:51:50.179Z,101766.88
2022-12-26T16:53:51.852Z,101769.84
2022-12-26T16:55:56.671Z,101770.53
2022-12-26T16:58:01.487Z,101767.22
2022-12-26T17:00:04.631Z,101758.59
2022-12-26T17:02:15.535Z,101761.09
2022-12-26T17:04:23.149Z,101769.72
2022-12-26T17:06:30.099Z,101777.91
2022-12-26T17:08:31.814Z,101780.34
2022-12-26T17:10:36.288Z,101783.97
2022-12-26T17:12:39.873Z,101796.13
2022-12-26T17:14:45.831Z,101775.34
2022-12-26T17:16:47.532Z,101775.72
2022-12-26T17:18:52.601Z,101787.19
2022-12-26T17:20:54.322Z,101787.88
2022-12-26T17:22:57.278Z,101792.25
2022-12-26T17:25:30.429Z,101787.88
2022-12-26T17:27:32.349Z,101777.63
2022-12-26T17:29:49.071Z,101782.50
2022-12-26T17:31:50.836Z,101777.38
2022-12-26T17:33:56.982Z,101775.94
2022-12-26T17:38:28.217Z,101789.91
2022-12-26T17:40:40.866Z,101781.13
2022-12-26T17:42:45.186Z,101780.25
2022-12-26T17:44:47.089Z,101795.03
2022-12-26T17:46:48.791Z,101791.06
2022-12-26T17:48:50.453Z,101786.56
2022-12-26T17:51:01.264Z,101790.34
2022-12-26T17:53:05.964Z,101795.84
2022-12-26T17:55:15.548Z,101785.13
2022-12-26T17:57:22.944Z,101789.03
2022-12-26T17:59:24.775Z,101788.84
2022-12-26T18:01:26.596Z,101796.09
2022-12-26T18:03:28.800Z,101793.25
2022-12-26T18:05:30.972Z,101786.28
2022-12-26T18:07:32.772Z,101791.66
2022-12-26T18:09:34.528Z,101794.16
2022-12-26T18:11:36.247Z,101789.97
2022-12-26T18:13:44.492Z,101787.91
2022-12-26T18:15:46.429Z,101789.66
2022-12-26T18:17:49.964Z,101789.91
2022-12-26T18:19:51.644Z,101799.53
2022-12-26T18:21:53.327Z,101793.16
2022-12-26T18:23:55.754Z,101790.78
2022-12-26T18:26:01.286Z,101797.75
2022-12-26T18:28:03.083Z,101807.63
2022-12-26T18:30:05.532Z,101812.56
2022-12-26T18:32:21.263Z,101808.69
2022-12-26T18:34:22.984Z,101813.16
2022-12-26T18:36:30.647Z,101818.53
2022-12-26T18:38:32.370Z,101821.22
2022-12-26T18:40:36.850Z,101824.19
2022-12-26T18:42:38.604Z,101823.59
2022-12-26T18:44:41.624Z,101824.13
2022-12-26T18:46:43.364Z,101835.19
2022-12-26T18:48:45.280Z,101825.31
2022-12-26T18:50:47.192Z,101837.97
2022-12-26T18:52:53.510Z,101843.59
2022-12-26T18:54:55.795Z,101838.19
2022-12-26T18:56:57.481Z,101837.66
2022-12-26T18:58:59.128Z,101842.63
2022-12-26T19:01:03.193Z,101834.00
2022-12-26T19:03:04.938Z,101834.78
2022-12-26T19:05:07.045Z,101836.38
2022-12-26T19:07:11.139Z,101844.06
2022-12-26T19:09:14.245Z,101840.38
2022-12-26T19:11:16.241Z,101843.19
2022-12-26T19:13:17.909Z,101848.69
2022-12-26T19:15:20.004Z,101844.78
2022-12-26T19:17:21.809Z,101840.50
2022-12-26T19:19:26.691Z,101846.44
2022-12-26T19:21:28.438Z,101843.41
2022-12-26T19:23:37.237Z,101860.41
2022-12-26T19:25:38.895Z,101864.09
2022-12-26T19:27:41.016Z,101858.97
2022-12-26T19:29:42.672Z,101859.63
2022-12-26T19:31:44.558Z,101858.69
2022-12-26T19:33:46.322Z,101859.41
2022-12-26T19:35:55.785Z,101862.91
2022-12-26T19:37:58.619Z,101868.66
2022-12-26T19:40:00.304Z,101863.00
2022-12-26T19:42:02.109Z,101868.34
2022-12-26T19:44:03.889Z,101871.69
2022-12-26T19:46:08.295Z,101876.66
2022-12-26T19:48:10.055Z,101879.22
2022-12-26T19:50:12.131Z,101879.06
2022-12-26T19:52:14.037Z,101878.19
2022-12-26T19:54:15.877Z,101871.63
2022-12-26T19:56:27.735Z,101881.78
2022-12-26T19:58:32.581Z,101877.53
2022-12-26T20:00:34.380Z,101888.81
2022-12-26T20:02:36.261Z,101885.94
2022-12-26T20:04:37.990Z,101886.69
2022-12-26T20:06:39.991Z,101888.06
2022-12-26T20:08:42.886Z,101882.44
2022-12-26T20:10:44.555Z,101888.06
2022-12-26T20:12:46.273Z,101902.50
2022-12-26T20:14:48.089Z,101889.88
2022-12-26T20:17:08.951Z,101892.38
2022-12-26T20:19:11.362Z,101892.19
2022-12-26T20:21:13.817Z,101898.00
2022-12-26T20:23:15.444Z,101910.06
2022-12-26T20:25:17.134Z,101912.56
2022-12-26T20:27:18.956Z,101903.63
2022-12-26T20:29:21.130Z,101911.22
2022-12-26T20:31:22.949Z,101914.59
2022-12-26T20:33:24.703Z,101911.38
2022-12-26T20:35:26.378Z,101911.03
2022-12-26T20:37:28.045Z,101919.72
2022-12-26T20:39:32.065Z,101919.94
2022-12-26T20:41:34.726Z,101925.84
2022-12-26T20:43:44.148Z,101923.28
2022-12-26T20:45:45.939Z,101926.41
2022-12-26T20:47:47.761Z,101935.94
2022-12-26T20:49:49.478Z,101929.44
2022-12-26T20:51:51.149Z,101941.72
2022-12-26T20:53:53.547Z,101946.31
2022-12-26T20:55:58.865Z,101942.50
2022-12-26T20:58:00.564Z,101941.34
2022-12-26T21:00:02.338Z,101942.50
2022-12-26T21:02:04.344Z,101949.75
2022-12-26T21:04:07.718Z,101942.16
2022-12-26T21:06:18.851Z,101945.41
2022-12-26T21:08:21.121Z,101954.38
2022-12-26T21:10:22.759Z,101950.78
2022-12-26T21:12:24.555Z,101952.09
2022-12-26T21:14:26.288Z,101960.56
2022-12-26T21:16:32.399Z,101951.09
2022-12-26T21:18:34.493Z,101960.94
2022-12-26T21:20:36.907Z,101962.41
2022-12-26T21:22:38.627Z,101974.53
2022-12-26T21:24:40.391Z,101979.44
2022-12-26T21:26:43.160Z,101988.13
2022-12-26T21:28:44.979Z,101981.09
2022-12-26T21:30:46.674Z,101977.38
2022-12-26T21:32:48.478Z,101980.38
2022-12-26T21:34:50.457Z,101983.38
2022-12-26T21:37:11.603Z,101984.16
2022-12-26T21:39:13.366Z,101983.00
2022-12-26T21:41:15.264Z,101983.09
2022-12-26T21:43:17.202Z,101993.22
2022-12-26T21:45:19.816Z,101996.06
2022-12-26T21:47:21.663Z,101999.22
2022-12-26T21:49:23.354Z,102009.22
2022-12-26T21:51:26.093Z,102003.47
2022-12-26T21:53:37.095Z,102006.91
2022-12-26T21:55:38.866Z,102006.63
2022-12-26T21:57:40.492Z,102012.56
2022-12-26T21:59:57.103Z,102006.03
2022-12-26T22:01:58.903Z,102022.72
2022-12-26T22:04:19.287Z,102024.09
2022-12-26T22:06:20.965Z,102025.06
2022-12-26T22:08:22.607Z,102028.84
2022-12-26T22:10:46.577Z,102030.38
2022-12-26T22:12:57.559Z,102028.44
2022-12-26T22:14:59.287Z,102023.25
2022-12-26T22:17:01.176Z,102024.75
2022-12-26T22:19:03.008Z,102022.50
2022-12-26T22:21:19.562Z,102030.09
2022-12-26T22:23:21.355Z,102033.72
2022-12-26T22:25:23.033Z,102034.69
2022-12-26T22:27:24.680Z,102033.22
2022-12-26T22:29:26.355Z,102040.25
2022-12-26T22:31:35.154Z,102043.78
2022-12-26T22:33:40.903Z,102044.91
2022-12-26T22:35:42.696Z,102046.50
2022-12-26T22:37:44.359Z,102039.44
2022-12-26T22:39:46.168Z,102038.41
2022-12-26T22:41:47.818Z,102043.59
2022-12-26T22:43:49.581Z,102041.63
2022-12-26T22:45:52.482Z,102044.72
2022-12-26T22:47:54.503Z,102041.63
2022-12-26T22:49:56.175Z,102045.63
2022-12-26T22:51:57.975Z,102042.97
2022-12-26T22:54:01.085Z,102048.84
2022-12-26T22:56:05.681Z,102057.59
2022-12-26T22:58:07.368Z,102048.69
2022-12-26T23:00:12.731Z,102049.94
2022-12-26T23:02:15.461Z,102054.16
2022-12-26T23:04:17.383Z,102060.16
2022-12-26T23:06:36.797Z,102060.03
2022-12-26T23:08:38.679Z,102056.84
2022-12-26T23:10:40.685Z,102067.94
2022-12-26T23:12:45.543Z,102069.22
2022-12-26T23:14:48.655Z,102064.06
2022-12-26T23:16:58.578Z,102068.66
2022-12-26T23:19:34.918Z,102064.41
2022-12-26T23:21:45.080Z,102069.44
2022-12-26T23:23:47.032Z,102068.16
2022-12-26T23:25:49.418Z,102060.75
2022-12-26T23:28:09.671Z,102075.91
2022-12-26T23:30:19.113Z,102075.53
2022-12-26T23:32:20.777Z,102078.94
2022-12-26T23:34:22.591Z,102068.72
2022-12-26T23:36:24.350Z,102068.00
2022-12-26T23:38:26.421Z,102082.31
2022-12-26T23:40:28.068Z,102068.09
2022-12-26T23:42:30.015Z,102062.19
2022-12-26T23:44:31.693Z,102069.34
2022-12-26T23:46:33.369Z,102077.28
2022-12-26T23:48:35.084Z,102076.31
2022-12-26T23:50:36.786Z,102081.34
2022-12-26T23:52:38.884Z,102082.41
2022-12-26T23:54:40.547Z,102077.97
2022-12-26T23:56:42.310Z,102078.28
2022-12-26T23:58:44.124Z,102077.47
